sensor_id;sensor_type;location;lat;lon;timestamp;temperature;humidity
33803;DHT22;20110;53.120;5.786;2023-01-09T00:01:48;5.40;99.90
33803;DHT22;20110;53.120;5.786;2023-01-09T00:04:16;5.40;99.90
33803;DHT22;20110;53.120;5.786;2023-01-09T00:06:42;5.40;99.90
33803;DHT22;20110;53.120;5.786;2023-01-09T00:09:10;5.30;99.90
33803;DHT22;20110;53.120;5.786;2023-01-09T00:11:36;5.30;99.90
33803;DHT22;20110;53.120;5.786;2023-01-09T00:14:03;5.40;99.90
33803;DHT22;20110;53.120;5.786;2023-01-09T00:16:29;5.40;99.90
33803;DHT22;20110;53.120;5.786;2023-01-09T00:18:55;5.50;99.90
33803;DHT22;20110;53.120;5.786;2023-01-09T00:21:21;5.50;99.90
33803;DHT22;20110;53.120;5.786;2023-01-09T00:23:47;5.50;99.90
33803;DHT22;20110;53.120;5.786;2023-01-09T00:26:15;5.50;99.90
33803;DHT22;20110;53.120;5.786;2023-01-09T00:28:44;5.70;99.90
33803;DHT22;20110;53.120;5.786;2023-01-09T00:31:11;5.70;99.90
33803;DHT22;20110;53.120;5.786;2023-01-09T00:33:42;5.80;99.90
33803;DHT22;20110;53.120;5.786;2023-01-09T00:36:11;5.80;99.90
33803;DHT22;20110;53.120;5.786;2023-01-09T00:38:37;6.00;99.90
33803;DHT22;20110;53.120;5.786;2023-01-09T00:41:05;6.00;99.90
33803;DHT22;20110;53.120;5.786;2023-01-09T00:43:40;6.20;99.90
33803;DHT22;20110;53.120;5.786;2023-01-09T00:46:12;6.10;99.90
33803;DHT22;20110;53.120;5.786;2023-01-09T00:48:41;6.10;99.90
33803;DHT22;20110;53.120;5.786;2023-01-09T00:51:09;6.10;99.90
33803;DHT22;20110;53.120;5.786;2023-01-09T00:53:37;6.10;99.90
33803;DHT22;20110;53.120;5.786;2023-01-09T00:56:07;6.10;99.90
33803;DHT22;20110;53.120;5.786;2023-01-09T00:58:36;6.10;99.90
33803;DHT22;20110;53.120;5.786;2023-01-09T01:01:02;6.00;99.90
33803;DHT22;20110;53.120;5.786;2023-01-09T01:03:29;6.10;99.90
33803;DHT22;20110;53.120;5.786;2023-01-09T01:05:55;6.10;99.90
33803;DHT22;20110;53.120;5.786;2023-01-09T01:08:39;6.00;99.90
33803;DHT22;20110;53.120;5.786;2023-01-09T01:11:07;6.00;99.90
33803;DHT22;20110;53.120;5.786;2023-01-09T01:13:35;6.00;99.90
33803;DHT22;20110;53.120;5.786;2023-01-09T01:16:06;6.00;99.90
33803;DHT22;20110;53.120;5.786;2023-01-09T01:18:33;6.00;99.90
33803;DHT22;20110;53.120;5.786;2023-01-09T01:20:59;5.90;99.90
33803;DHT22;20110;53.120;5.786;2023-01-09T01:23:25;5.90;99.90
33803;DHT22;20110;53.120;5.786;2023-01-09T01:25:51;5.90;99.90
33803;DHT22;20110;53.120;5.786;2023-01-09T01:28:17;5.90;99.90
33803;DHT22;20110;53.120;5.786;2023-01-09T01:30:44;5.90;99.90
33803;DHT22;20110;53.120;5.786;2023-01-09T01:33:10;5.80;99.90
33803;DHT22;20110;53.120;5.786;2023-01-09T01:35:36;5.70;99.90
33803;DHT22;20110;53.120;5.786;2023-01-09T01:38:02;5.90;99.90
33803;DHT22;20110;53.120;5.786;2023-01-09T01:40:29;5.70;99.90
33803;DHT22;20110;53.120;5.786;2023-01-09T01:42:55;5.70;99.90
33803;DHT22;20110;53.120;5.786;2023-01-09T01:45:26;5.70;99.90
33803;DHT22;20110;53.120;5.786;2023-01-09T01:48:04;5.60;99.90
33803;DHT22;20110;53.120;5.786;2023-01-09T01:50:43;5.50;99.90
33803;DHT22;20110;53.120;5.786;2023-01-09T01:53:11;5.40;99.90
33803;DHT22;20110;53.120;5.786;2023-01-09T01:55:49;5.40;99.90
33803;DHT22;20110;53.120;5.786;2023-01-09T01:58:27;5.30;99.90
33803;DHT22;20110;53.120;5.786;2023-01-09T02:00:54;5.10;99.90
33803;DHT22;20110;53.120;5.786;2023-01-09T02:03:23;5.20;99.90
33803;DHT22;20110;53.120;5.786;2023-01-09T02:05:52;5.20;99.90
33803;DHT22;20110;53.120;5.786;2023-01-09T02:08:18;5.20;99.90
33803;DHT22;20110;53.120;5.786;2023-01-09T02:10:45;5.10;99.90
33803;DHT22;20110;53.120;5.786;2023-01-09T02:13:12;5.00;99.90
33803;DHT22;20110;53.120;5.786;2023-01-09T02:16:00;4.90;99.90
33803;DHT22;20110;53.120;5.786;2023-01-09T02:19:04;4.80;99.90
33803;DHT22;20110;53.120;5.786;2023-01-09T02:21:49;4.70;99.90
33803;DHT22;20110;53.120;5.786;2023-01-09T02:24:27;4.20;99.90
33803;DHT22;20110;53.120;5.786;2023-01-09T02:32:57;4.40;99.90
33803;DHT22;20110;53.120;5.786;2023-01-09T02:44:23;4.20;99.90
33803;DHT22;20110;53.120;5.786;2023-01-09T02:47:06;4.20;99.90
33803;DHT22;20110;53.120;5.786;2023-01-09T02:49:52;4.20;99.90
33803;DHT22;20110;53.120;5.786;2023-01-09T03:09:35;4.40;99.90
33803;DHT22;20110;53.120;5.786;2023-01-09T03:12:15;4.50;99.90
33803;DHT22;20110;53.120;5.786;2023-01-09T03:14:50;4.40;99.90
33803;DHT22;20110;53.120;5.786;2023-01-09T03:17:26;4.40;99.90
33803;DHT22;20110;53.120;5.786;2023-01-09T03:20:04;4.40;99.90
33803;DHT22;20110;53.120;5.786;2023-01-09T03:22:33;4.40;99.90
33803;DHT22;20110;53.120;5.786;2023-01-09T03:24:59;4.60;99.90
33803;DHT22;20110;53.120;5.786;2023-01-09T03:27:25;4.60;99.90
33803;DHT22;20110;53.120;5.786;2023-01-09T03:29:51;4.70;99.90
33803;DHT22;20110;53.120;5.786;2023-01-09T03:32:18;4.60;99.90
33803;DHT22;20110;53.120;5.786;2023-01-09T03:34:44;4.70;99.90
33803;DHT22;20110;53.120;5.786;2023-01-09T03:37:10;4.80;99.90
33803;DHT22;20110;53.120;5.786;2023-01-09T03:39:36;4.80;99.90
33803;DHT22;20110;53.120;5.786;2023-01-09T03:42:02;4.90;99.90
33803;DHT22;20110;53.120;5.786;2023-01-09T03:44:27;5.10;99.90
33803;DHT22;20110;53.120;5.786;2023-01-09T03:46:53;5.00;99.90
33803;DHT22;20110;53.120;5.786;2023-01-09T03:49:19;5.00;99.90
33803;DHT22;20110;53.120;5.786;2023-01-09T03:51:46;5.10;99.90
33803;DHT22;20110;53.120;5.786;2023-01-09T03:54:11;5.00;99.90
33803;DHT22;20110;53.120;5.786;2023-01-09T03:56:37;5.00;99.90
33803;DHT22;20110;53.120;5.786;2023-01-09T03:59:03;5.00;99.90
33803;DHT22;20110;53.120;5.786;2023-01-09T04:01:29;5.00;99.90
33803;DHT22;20110;53.120;5.786;2023-01-09T04:03:55;5.00;99.90
33803;DHT22;20110;53.120;5.786;2023-01-09T04:06:21;4.90;99.90
33803;DHT22;20110;53.120;5.786;2023-01-09T04:08:46;4.90;99.90
33803;DHT22;20110;53.120;5.786;2023-01-09T04:11:12;4.70;99.90
33803;DHT22;20110;53.120;5.786;2023-01-09T04:13:38;4.70;99.90
33803;DHT22;20110;53.120;5.786;2023-01-09T04:16:04;4.70;99.90
33803;DHT22;20110;53.120;5.786;2023-01-09T04:18:30;4.70;99.90
33803;DHT22;20110;53.120;5.786;2023-01-09T04:20:58;4.80;99.90
33803;DHT22;20110;53.120;5.786;2023-01-09T04:23:25;4.90;99.90
33803;DHT22;20110;53.120;5.786;2023-01-09T04:25:51;4.90;99.90
33803;DHT22;20110;53.120;5.786;2023-01-09T04:28:17;4.90;99.90
33803;DHT22;20110;53.120;5.786;2023-01-09T04:30:43;4.80;99.90
33803;DHT22;20110;53.120;5.786;2023-01-09T04:33:09;4.90;99.90
33803;DHT22;20110;53.120;5.786;2023-01-09T04:35:35;4.80;99.90
33803;DHT22;20110;53.120;5.786;2023-01-09T04:38:01;4.70;99.90
33803;DHT22;20110;53.120;5.786;2023-01-09T04:40:27;4.60;99.90
33803;DHT22;20110;53.120;5.786;2023-01-09T04:42:53;4.60;99.90
33803;DHT22;20110;53.120;5.786;2023-01-09T04:45:19;4.60;99.90
33803;DHT22;20110;53.120;5.786;2023-01-09T04:47:45;4.50;99.90
33803;DHT22;20110;53.120;5.786;2023-01-09T04:50:11;4.50;99.90
33803;DHT22;20110;53.120;5.786;2023-01-09T04:52:37;4.40;99.90
33803;DHT22;20110;53.120;5.786;2023-01-09T04:55:03;4.40;99.90
33803;DHT22;20110;53.120;5.786;2023-01-09T04:57:30;4.40;99.90
33803;DHT22;20110;53.120;5.786;2023-01-09T04:59:55;4.40;99.90
33803;DHT22;20110;53.120;5.786;2023-01-09T05:02:21;4.40;99.90
33803;DHT22;20110;53.120;5.786;2023-01-09T05:04:47;4.40;99.90
33803;DHT22;20110;53.120;5.786;2023-01-09T05:07:13;4.50;99.90
33803;DHT22;20110;53.120;5.786;2023-01-09T05:09:39;4.40;99.90
33803;DHT22;20110;53.120;5.786;2023-01-09T05:12:05;4.50;99.90
33803;DHT22;20110;53.120;5.786;2023-01-09T05:14:31;4.30;99.90
33803;DHT22;20110;53.120;5.786;2023-01-09T05:16:57;4.20;99.90
33803;DHT22;20110;53.120;5.786;2023-01-09T05:19:22;4.40;99.90
33803;DHT22;20110;53.120;5.786;2023-01-09T05:21:49;4.40;99.90
33803;DHT22;20110;53.120;5.786;2023-01-09T05:24:15;4.60;99.90
33803;DHT22;20110;53.120;5.786;2023-01-09T05:26:41;4.60;99.90
33803;DHT22;20110;53.120;5.786;2023-01-09T05:29:08;4.70;99.90
33803;DHT22;20110;53.120;5.786;2023-01-09T05:31:34;4.70;99.90
33803;DHT22;20110;53.120;5.786;2023-01-09T05:34:00;4.70;99.90
33803;DHT22;20110;53.120;5.786;2023-01-09T05:36:26;4.70;99.90
33803;DHT22;20110;53.120;5.786;2023-01-09T05:38:55;4.80;99.90
33803;DHT22;20110;53.120;5.786;2023-01-09T05:41:24;4.80;99.90
33803;DHT22;20110;53.120;5.786;2023-01-09T05:43:53;4.80;99.90
33803;DHT22;20110;53.120;5.786;2023-01-09T05:46:19;5.00;99.90
33803;DHT22;20110;53.120;5.786;2023-01-09T05:48:45;5.00;99.90
33803;DHT22;20110;53.120;5.786;2023-01-09T05:51:11;5.00;99.90
33803;DHT22;20110;53.120;5.786;2023-01-09T05:53:37;5.00;99.90
33803;DHT22;20110;53.120;5.786;2023-01-09T05:56:03;5.10;99.90
33803;DHT22;20110;53.120;5.786;2023-01-09T05:58:29;5.10;99.90
33803;DHT22;20110;53.120;5.786;2023-01-09T06:00:55;5.10;99.90
33803;DHT22;20110;53.120;5.786;2023-01-09T06:03:22;5.10;99.90
33803;DHT22;20110;53.120;5.786;2023-01-09T06:05:48;5.10;99.90
33803;DHT22;20110;53.120;5.786;2023-01-09T06:08:13;5.10;99.90
33803;DHT22;20110;53.120;5.786;2023-01-09T06:10:39;5.00;99.90
33803;DHT22;20110;53.120;5.786;2023-01-09T06:13:05;5.00;99.90
33803;DHT22;20110;53.120;5.786;2023-01-09T06:15:31;5.00;99.90
33803;DHT22;20110;53.120;5.786;2023-01-09T06:17:56;5.00;99.90
33803;DHT22;20110;53.120;5.786;2023-01-09T06:20:22;5.00;99.90
33803;DHT22;20110;53.120;5.786;2023-01-09T06:22:48;5.00;99.90
33803;DHT22;20110;53.120;5.786;2023-01-09T06:25:16;5.00;99.90
33803;DHT22;20110;53.120;5.786;2023-01-09T06:27:42;4.90;99.90
33803;DHT22;20110;53.120;5.786;2023-01-09T06:30:09;4.90;99.90
33803;DHT22;20110;53.120;5.786;2023-01-09T06:32:35;4.90;99.90
33803;DHT22;20110;53.120;5.786;2023-01-09T06:35:01;4.90;99.90
33803;DHT22;20110;53.120;5.786;2023-01-09T06:37:27;5.00;99.90
33803;DHT22;20110;53.120;5.786;2023-01-09T06:39:53;5.00;99.90
33803;DHT22;20110;53.120;5.786;2023-01-09T06:42:19;4.90;99.90
33803;DHT22;20110;53.120;5.786;2023-01-09T06:44:46;4.80;99.90
33803;DHT22;20110;53.120;5.786;2023-01-09T06:47:12;4.80;99.90
33803;DHT22;20110;53.120;5.786;2023-01-09T06:49:38;4.80;99.90
33803;DHT22;20110;53.120;5.786;2023-01-09T06:52:04;4.80;99.90
33803;DHT22;20110;53.120;5.786;2023-01-09T06:54:32;4.80;99.90
33803;DHT22;20110;53.120;5.786;2023-01-09T06:56:58;4.60;99.90
33803;DHT22;20110;53.120;5.786;2023-01-09T06:59:24;4.60;99.90
33803;DHT22;20110;53.120;5.786;2023-01-09T07:01:50;4.50;99.90
33803;DHT22;20110;53.120;5.786;2023-01-09T07:04:16;4.60;99.90
33803;DHT22;20110;53.120;5.786;2023-01-09T07:06:46;4.50;99.90
33803;DHT22;20110;53.120;5.786;2023-01-09T07:09:12;4.40;99.90
33803;DHT22;20110;53.120;5.786;2023-01-09T07:11:39;4.50;99.90
33803;DHT22;20110;53.120;5.786;2023-01-09T07:14:05;4.50;99.90
33803;DHT22;20110;53.120;5.786;2023-01-09T07:16:31;4.50;99.90
33803;DHT22;20110;53.120;5.786;2023-01-09T07:18:58;4.40;99.90
33803;DHT22;20110;53.120;5.786;2023-01-09T07:21:24;4.50;99.90
33803;DHT22;20110;53.120;5.786;2023-01-09T07:23:50;4.40;99.90
33803;DHT22;20110;53.120;5.786;2023-01-09T07:26:16;4.40;99.90
33803;DHT22;20110;53.120;5.786;2023-01-09T07:28:42;4.30;99.90
33803;DHT22;20110;53.120;5.786;2023-01-09T07:31:07;4.40;99.90
33803;DHT22;20110;53.120;5.786;2023-01-09T07:33:34;4.30;99.90
33803;DHT22;20110;53.120;5.786;2023-01-09T07:36:00;4.40;99.90
33803;DHT22;20110;53.120;5.786;2023-01-09T07:38:26;4.30;99.90
33803;DHT22;20110;53.120;5.786;2023-01-09T07:40:52;4.30;99.90
33803;DHT22;20110;53.120;5.786;2023-01-09T07:43:18;4.30;99.90
33803;DHT22;20110;53.120;5.786;2023-01-09T07:45:45;4.30;99.90
33803;DHT22;20110;53.120;5.786;2023-01-09T07:48:11;4.40;99.90
33803;DHT22;20110;53.120;5.786;2023-01-09T07:50:37;4.40;99.90
33803;DHT22;20110;53.120;5.786;2023-01-09T07:53:02;4.40;99.90
33803;DHT22;20110;53.120;5.786;2023-01-09T07:55:28;4.40;99.90
33803;DHT22;20110;53.120;5.786;2023-01-09T07:57:54;4.50;99.90
33803;DHT22;20110;53.120;5.786;2023-01-09T08:00:20;4.50;99.90
33803;DHT22;20110;53.120;5.786;2023-01-09T08:02:53;4.50;99.90
33803;DHT22;20110;53.120;5.786;2023-01-09T08:05:19;4.40;99.90
33803;DHT22;20110;53.120;5.786;2023-01-09T08:07:45;4.40;99.90
33803;DHT22;20110;53.120;5.786;2023-01-09T08:10:11;4.40;99.90
33803;DHT22;20110;53.120;5.786;2023-01-09T08:12:40;4.40;99.90
33803;DHT22;20110;53.120;5.786;2023-01-09T08:15:07;4.40;99.90
33803;DHT22;20110;53.120;5.786;2023-01-09T08:17:33;4.40;99.90
33803;DHT22;20110;53.120;5.786;2023-01-09T08:19:59;4.30;99.90
33803;DHT22;20110;53.120;5.786;2023-01-09T08:22:25;4.40;99.90
33803;DHT22;20110;53.120;5.786;2023-01-09T08:24:50;4.40;99.90
33803;DHT22;20110;53.120;5.786;2023-01-09T08:27:19;4.40;99.90
33803;DHT22;20110;53.120;5.786;2023-01-09T08:29:45;4.40;99.90
33803;DHT22;20110;53.120;5.786;2023-01-09T08:32:11;4.50;99.90
33803;DHT22;20110;53.120;5.786;2023-01-09T08:34:36;4.50;99.90
33803;DHT22;20110;53.120;5.786;2023-01-09T08:37:02;4.60;99.90
33803;DHT22;20110;53.120;5.786;2023-01-09T08:39:28;4.50;99.90
33803;DHT22;20110;53.120;5.786;2023-01-09T08:41:54;4.50;99.90
33803;DHT22;20110;53.120;5.786;2023-01-09T08:44:38;4.60;99.90
33803;DHT22;20110;53.120;5.786;2023-01-09T08:47:23;4.50;99.90
33803;DHT22;20110;53.120;5.786;2023-01-09T08:49:49;4.50;99.90
33803;DHT22;20110;53.120;5.786;2023-01-09T08:52:15;4.60;99.90
33803;DHT22;20110;53.120;5.786;2023-01-09T08:54:40;4.60;99.90
33803;DHT22;20110;53.120;5.786;2023-01-09T08:57:06;4.70;99.90
33803;DHT22;20110;53.120;5.786;2023-01-09T08:59:32;4.70;99.90
33803;DHT22;20110;53.120;5.786;2023-01-09T09:01:59;4.70;99.90
33803;DHT22;20110;53.120;5.786;2023-01-09T09:04:25;4.70;99.90
33803;DHT22;20110;53.120;5.786;2023-01-09T09:06:51;4.70;99.90
33803;DHT22;20110;53.120;5.786;2023-01-09T09:09:16;4.70;99.90
33803;DHT22;20110;53.120;5.786;2023-01-09T09:11:43;4.70;99.90
33803;DHT22;20110;53.120;5.786;2023-01-09T09:14:09;4.70;99.90
33803;DHT22;20110;53.120;5.786;2023-01-09T09:16:53;4.80;99.90
33803;DHT22;20110;53.120;5.786;2023-01-09T09:19:19;4.80;99.90
33803;DHT22;20110;53.120;5.786;2023-01-09T09:21:45;4.90;99.90
33803;DHT22;20110;53.120;5.786;2023-01-09T09:24:11;4.90;99.90
33803;DHT22;20110;53.120;5.786;2023-01-09T09:26:37;4.80;99.90
33803;DHT22;20110;53.120;5.786;2023-01-09T09:29:03;4.80;99.90
33803;DHT22;20110;53.120;5.786;2023-01-09T09:31:28;4.80;99.90
33803;DHT22;20110;53.120;5.786;2023-01-09T09:33:55;4.60;99.90
33803;DHT22;20110;53.120;5.786;2023-01-09T09:36:21;4.60;99.90
33803;DHT22;20110;53.120;5.786;2023-01-09T09:38:47;4.70;99.90
33803;DHT22;20110;53.120;5.786;2023-01-09T09:55:40;4.90;99.90
33803;DHT22;20110;53.120;5.786;2023-01-09T10:00:51;4.90;99.90
33803;DHT22;20110;53.120;5.786;2023-01-09T10:03:30;4.80;99.90
33803;DHT22;20110;53.120;5.786;2023-01-09T10:06:12;5.00;99.90
33803;DHT22;20110;53.120;5.786;2023-01-09T10:09:01;5.00;99.90
33803;DHT22;20110;53.120;5.786;2023-01-09T10:11:41;5.10;99.90
33803;DHT22;20110;53.120;5.786;2023-01-09T10:14:14;5.20;99.90
33803;DHT22;20110;53.120;5.786;2023-01-09T10:16:45;5.10;99.90
33803;DHT22;20110;53.120;5.786;2023-01-09T10:22:43;5.20;99.90
33803;DHT22;20110;53.120;5.786;2023-01-09T10:25:47;5.20;99.90
33803;DHT22;20110;53.120;5.786;2023-01-09T10:31:53;5.20;99.90
33803;DHT22;20110;53.120;5.786;2023-01-09T10:37:43;5.20;99.90
33803;DHT22;20110;53.120;5.786;2023-01-09T10:40:45;5.20;99.90
33803;DHT22;20110;53.120;5.786;2023-01-09T10:43:45;5.10;99.90
33803;DHT22;20110;53.120;5.786;2023-01-09T10:46:29;5.10;99.90
33803;DHT22;20110;53.120;5.786;2023-01-09T10:49:26;5.00;99.90
33803;DHT22;20110;53.120;5.786;2023-01-09T10:54:45;5.10;99.90
33803;DHT22;20110;53.120;5.786;2023-01-09T10:57:25;5.00;99.90
33803;DHT22;20110;53.120;5.786;2023-01-09T11:00:21;5.10;99.90
33803;DHT22;20110;53.120;5.786;2023-01-09T11:02:48;5.00;99.90
33803;DHT22;20110;53.120;5.786;2023-01-09T11:05:22;5.00;99.90
33803;DHT22;20110;53.120;5.786;2023-01-09T11:10:44;5.30;99.90
33803;DHT22;20110;53.120;5.786;2023-01-09T11:16:18;5.50;99.90
33803;DHT22;20110;53.120;5.786;2023-01-09T11:18:51;5.40;99.90
33803;DHT22;20110;53.120;5.786;2023-01-09T11:21:39;5.40;99.90
33803;DHT22;20110;53.120;5.786;2023-01-09T11:26:49;5.50;99.90
33803;DHT22;20110;53.120;5.786;2023-01-09T11:29:18;5.60;99.90
33803;DHT22;20110;53.120;5.786;2023-01-09T11:31:56;5.60;99.90
33803;DHT22;20110;53.120;5.786;2023-01-09T11:34:32;5.50;99.90
33803;DHT22;20110;53.120;5.786;2023-01-09T11:37:07;5.60;99.90
33803;DHT22;20110;53.120;5.786;2023-01-09T11:39:38;5.60;99.90
33803;DHT22;20110;53.120;5.786;2023-01-09T11:42:19;5.50;99.90
33803;DHT22;20110;53.120;5.786;2023-01-09T11:45:29;5.60;99.90
33803;DHT22;20110;53.120;5.786;2023-01-09T11:47:58;5.60;99.90
33803;DHT22;20110;53.120;5.786;2023-01-09T11:50:27;5.70;99.90
33803;DHT22;20110;53.120;5.786;2023-01-09T11:53:27;5.90;99.90
33803;DHT22;20110;53.120;5.786;2023-01-09T11:55:58;5.80;99.90
33803;DHT22;20110;53.120;5.786;2023-01-09T11:58:31;5.60;99.90
33803;DHT22;20110;53.120;5.786;2023-01-09T12:07:30;6.10;99.90
33803;DHT22;20110;53.120;5.786;2023-01-09T12:19:42;5.70;99.90
33803;DHT22;20110;53.120;5.786;2023-01-09T12:22:54;5.80;99.90
33803;DHT22;20110;53.120;5.786;2023-01-09T12:35:15;6.70;99.90
33803;DHT22;20110;53.120;5.786;2023-01-09T12:40:36;5.80;99.90
33803;DHT22;20110;53.120;5.786;2023-01-09T12:46:20;5.90;99.90
33803;DHT22;20110;53.120;5.786;2023-01-09T13:00:10;6.10;99.90
33803;DHT22;20110;53.120;5.786;2023-01-09T13:05:46;6.10;99.90
33803;DHT22;20110;53.120;5.786;2023-01-09T13:08:35;6.30;99.90
33803;DHT22;20110;53.120;5.786;2023-01-09T13:11:10;6.80;99.90
33803;DHT22;20110;53.120;5.786;2023-01-09T13:13:56;6.90;99.90
33803;DHT22;20110;53.120;5.786;2023-01-09T13:16:31;7.00;99.90
33803;DHT22;20110;53.120;5.786;2023-01-09T13:19:11;6.50;99.90
33803;DHT22;20110;53.120;5.786;2023-01-09T13:21:40;6.60;99.90
33803;DHT22;20110;53.120;5.786;2023-01-09T13:26:44;6.20;99.90
33803;DHT22;20110;53.120;5.786;2023-01-09T13:29:21;6.40;99.90
33803;DHT22;20110;53.120;5.786;2023-01-09T13:34:35;7.00;99.90
33803;DHT22;20110;53.120;5.786;2023-01-09T13:37:03;7.00;99.90
33803;DHT22;20110;53.120;5.786;2023-01-09T13:39:31;6.60;99.90
33803;DHT22;20110;53.120;5.786;2023-01-09T13:42:06;6.70;99.90
33803;DHT22;20110;53.120;5.786;2023-01-09T13:45:24;6.80;99.90
33803;DHT22;20110;53.120;5.786;2023-01-09T13:48:25;6.60;99.90
33803;DHT22;20110;53.120;5.786;2023-01-09T13:54:00;7.10;99.90
33803;DHT22;20110;53.120;5.786;2023-01-09T13:56:26;7.30;99.90
33803;DHT22;20110;53.120;5.786;2023-01-09T13:58:59;7.30;99.90
33803;DHT22;20110;53.120;5.786;2023-01-09T14:06:34;6.60;99.90
33803;DHT22;20110;53.120;5.786;2023-01-09T14:09:21;6.70;99.90
33803;DHT22;20110;53.120;5.786;2023-01-09T14:11:48;6.90;99.90
33803;DHT22;20110;53.120;5.786;2023-01-09T14:14:30;6.70;99.90
33803;DHT22;20110;53.120;5.786;2023-01-09T14:16:58;6.50;99.90
33803;DHT22;20110;53.120;5.786;2023-01-09T14:19:34;6.20;99.90
33803;DHT22;20110;53.120;5.786;2023-01-09T14:22:04;5.40;99.90
33803;DHT22;20110;53.120;5.786;2023-01-09T14:24:32;5.50;99.90
33803;DHT22;20110;53.120;5.786;2023-01-09T14:30:29;5.00;99.90
33803;DHT22;20110;53.120;5.786;2023-01-09T14:33:27;5.30;99.90
33803;DHT22;20110;53.120;5.786;2023-01-09T14:36:19;5.70;99.90
33803;DHT22;20110;53.120;5.786;2023-01-09T14:38:51;5.90;99.90
33803;DHT22;20110;53.120;5.786;2023-01-09T14:41:29;5.50;99.90
33803;DHT22;20110;53.120;5.786;2023-01-09T14:47:14;5.40;99.90
33803;DHT22;20110;53.120;5.786;2023-01-09T14:49:53;5.50;99.90
33803;DHT22;20110;53.120;5.786;2023-01-09T14:55:29;6.10;99.90
33803;DHT22;20110;53.120;5.786;2023-01-09T14:58:33;6.20;99.90
33803;DHT22;20110;53.120;5.786;2023-01-09T15:01:17;6.00;99.90
33803;DHT22;20110;53.120;5.786;2023-01-09T15:03:58;5.90;99.90
33803;DHT22;20110;53.120;5.786;2023-01-09T15:06:32;5.90;99.90
33803;DHT22;20110;53.120;5.786;2023-01-09T15:09:45;5.60;99.90
33803;DHT22;20110;53.120;5.786;2023-01-09T15:12:06;5.40;99.90
33803;DHT22;20110;53.120;5.786;2023-01-09T15:14:36;5.20;99.90
33803;DHT22;20110;53.120;5.786;2023-01-09T15:17:06;5.20;99.90
33803;DHT22;20110;53.120;5.786;2023-01-09T15:19:45;5.00;99.90
33803;DHT22;20110;53.120;5.786;2023-01-09T15:22:34;5.40;99.90
33803;DHT22;20110;53.120;5.786;2023-01-09T15:25:25;5.70;99.90
33803;DHT22;20110;53.120;5.786;2023-01-09T15:27:56;5.50;99.90
33803;DHT22;20110;53.120;5.786;2023-01-09T15:30:26;5.10;99.90
33803;DHT22;20110;53.120;5.786;2023-01-09T15:33:04;4.80;99.90
33803;DHT22;20110;53.120;5.786;2023-01-09T15:35:43;4.60;99.90
33803;DHT22;20110;53.120;5.786;2023-01-09T15:38:21;4.60;99.90
33803;DHT22;20110;53.120;5.786;2023-01-09T15:40:53;5.10;99.90
33803;DHT22;20110;53.120;5.786;2023-01-09T15:43:24;5.40;99.90
33803;DHT22;20110;53.120;5.786;2023-01-09T15:45:53;5.50;99.90
33803;DHT22;20110;53.120;5.786;2023-01-09T15:50:52;4.90;99.90
33803;DHT22;20110;53.120;5.786;2023-01-09T15:53:22;5.10;99.90
33803;DHT22;20110;53.120;5.786;2023-01-09T15:56:04;4.90;99.90
33803;DHT22;20110;53.120;5.786;2023-01-09T15:58:41;4.90;99.90
33803;DHT22;20110;53.120;5.786;2023-01-09T16:04:08;5.40;99.90
33803;DHT22;20110;53.120;5.786;2023-01-09T16:06:57;5.50;99.90
33803;DHT22;20110;53.120;5.786;2023-01-09T16:09:26;5.40;99.90
33803;DHT22;20110;53.120;5.786;2023-01-09T16:12:00;5.10;99.90
33803;DHT22;20110;53.120;5.786;2023-01-09T16:14:39;4.90;99.90
33803;DHT22;20110;53.120;5.786;2023-01-09T16:17:17;4.60;99.90
33803;DHT22;20110;53.120;5.786;2023-01-09T16:22:28;4.20;99.90
33803;DHT22;20110;53.120;5.786;2023-01-09T16:24:58;4.70;99.90
33803;DHT22;20110;53.120;5.786;2023-01-09T16:30:06;4.80;99.90
33803;DHT22;20110;53.120;5.786;2023-01-09T16:32:47;4.50;99.90
33803;DHT22;20110;53.120;5.786;2023-01-09T16:35:19;4.10;99.90
33803;DHT22;20110;53.120;5.786;2023-01-09T16:37:46;4.00;99.90
33803;DHT22;20110;53.120;5.786;2023-01-09T16:43:00;3.90;99.90
33803;DHT22;20110;53.120;5.786;2023-01-09T16:48:14;4.30;99.90
33803;DHT22;20110;53.120;5.786;2023-01-09T16:50:42;4.30;99.90
33803;DHT22;20110;53.120;5.786;2023-01-09T16:53:17;4.30;99.90
33803;DHT22;20110;53.120;5.786;2023-01-09T16:55:47;4.00;99.90
33803;DHT22;20110;53.120;5.786;2023-01-09T16:58:15;4.10;99.90
33803;DHT22;20110;53.120;5.786;2023-01-09T17:00:43;4.10;99.90
33803;DHT22;20110;53.120;5.786;2023-01-09T17:03:13;4.40;99.90
33803;DHT22;20110;53.120;5.786;2023-01-09T17:05:40;4.20;99.90
33803;DHT22;20110;53.120;5.786;2023-01-09T17:10:51;4.50;99.90
33803;DHT22;20110;53.120;5.786;2023-01-09T17:13:18;4.60;99.90
33803;DHT22;20110;53.120;5.786;2023-01-09T17:15:44;4.30;99.90
33803;DHT22;20110;53.120;5.786;2023-01-09T17:18:15;4.10;99.90
33803;DHT22;20110;53.120;5.786;2023-01-09T17:20:49;3.60;99.90
33803;DHT22;20110;53.120;5.786;2023-01-09T17:23:16;3.60;99.90
33803;DHT22;20110;53.120;5.786;2023-01-09T17:25:42;4.00;99.90
33803;DHT22;20110;53.120;5.786;2023-01-09T17:28:28;3.50;99.90
33803;DHT22;20110;53.120;5.786;2023-01-09T17:33:25;3.60;99.90
33803;DHT22;20110;53.120;5.786;2023-01-09T17:35:51;3.70;99.90
33803;DHT22;20110;53.120;5.786;2023-01-09T17:38:18;3.70;99.90
33803;DHT22;20110;53.120;5.786;2023-01-09T17:40:44;3.90;99.90
33803;DHT22;20110;53.120;5.786;2023-01-09T17:43:11;3.70;99.90
33803;DHT22;20110;53.120;5.786;2023-01-09T17:45:38;4.10;99.90
33803;DHT22;20110;53.120;5.786;2023-01-09T17:48:25;4.00;99.90
33803;DHT22;20110;53.120;5.786;2023-01-09T17:50:51;3.60;99.90
33803;DHT22;20110;53.120;5.786;2023-01-09T17:53:17;3.60;99.90
33803;DHT22;20110;53.120;5.786;2023-01-09T17:55:45;3.40;99.90
33803;DHT22;20110;53.120;5.786;2023-01-09T17:58:24;3.20;99.90
33803;DHT22;20110;53.120;5.786;2023-01-09T18:00:51;3.10;99.90
33803;DHT22;20110;53.120;5.786;2023-01-09T18:03:17;3.20;99.90
33803;DHT22;20110;53.120;5.786;2023-01-09T18:05:45;3.40;99.90
33803;DHT22;20110;53.120;5.786;2023-01-09T18:08:13;3.70;99.90
33803;DHT22;20110;53.120;5.786;2023-01-09T18:10:39;3.70;99.90
33803;DHT22;20110;53.120;5.786;2023-01-09T18:13:06;3.70;99.90
33803;DHT22;20110;53.120;5.786;2023-01-09T18:15:33;3.70;99.90
33803;DHT22;20110;53.120;5.786;2023-01-09T18:17:59;3.80;99.90
33803;DHT22;20110;53.120;5.786;2023-01-09T18:20:24;3.80;99.90
33803;DHT22;20110;53.120;5.786;2023-01-09T18:22:50;3.70;99.90
33803;DHT22;20110;53.120;5.786;2023-01-09T18:25:16;3.90;99.90
33803;DHT22;20110;53.120;5.786;2023-01-09T18:27:43;3.90;99.90
33803;DHT22;20110;53.120;5.786;2023-01-09T18:30:09;3.80;99.90
33803;DHT22;20110;53.120;5.786;2023-01-09T18:32:35;3.80;99.90
33803;DHT22;20110;53.120;5.786;2023-01-09T18:35:01;3.80;99.90
33803;DHT22;20110;53.120;5.786;2023-01-09T18:37:28;3.80;99.90
33803;DHT22;20110;53.120;5.786;2023-01-09T18:39:53;3.90;99.90
33803;DHT22;20110;53.120;5.786;2023-01-09T18:42:19;3.80;99.90
33803;DHT22;20110;53.120;5.786;2023-01-09T18:44:46;3.90;99.90
33803;DHT22;20110;53.120;5.786;2023-01-09T18:47:12;3.80;99.90
33803;DHT22;20110;53.120;5.786;2023-01-09T18:49:41;3.80;99.90